createdAt,value
2018-06-25T00:03:59.421Z,99.90
2018-06-25T00:08:43.996Z,99.90
2018-06-25T00:13:28.679Z,99.90
2018-06-25T00:18:13.400Z,99.90
2018-06-25T00:22:58.019Z,99.90
2018-06-25T00:27:42.755Z,99.90
2018-06-25T00:32:27.573Z,99.90
2018-06-25T00:37:12.050Z,99.90
2018-06-25T00:41:56.786Z,99.90
2018-06-25T00:46:41.622Z,99.90
2018-06-25T00:56:10.400Z,99.90
2018-06-25T01:00:54.934Z,99.90
2018-06-25T01:05:39.534Z,99.90
2018-06-25T01:10:24.340Z,99.90
2018-06-25T01:15:09.624Z,99.90
2018-06-25T01:19:54.476Z,99.90
2018-06-25T01:29:23.836Z,99.90
2018-06-25T01:34:08.488Z,99.90
2018-06-25T01:38:52.952Z,99.90
2018-06-25T01:43:37.442Z,99.90
2018-06-25T01:48:21.896Z,99.90
2018-06-25T01:53:06.474Z,99.90
2018-06-25T01:57:50.872Z,99.90
2018-06-25T02:02:35.360Z,99.90
2018-06-25T02:07:19.774Z,99.90
2018-06-25T02:12:04.159Z,99.90
2018-06-25T02:16:49.648Z,99.90
2018-06-25T02:21:34.059Z,99.90
2018-06-25T02:26:18.446Z,99.90
2018-06-25T02:31:02.934Z,99.90
2018-06-25T02:35:47.473Z,99.90
2018-06-25T02:40:31.810Z,99.90
2018-06-25T02:45:16.278Z,99.90
2018-06-25T02:50:00.736Z,99.90
2018-06-25T02:54:45.531Z,99.90
2018-06-25T02:59:29.918Z,99.90
2018-06-25T03:04:14.346Z,99.90
2018-06-25T03:08:58.872Z,99.90
2018-06-25T03:13:43.185Z,99.90
2018-06-25T03:18:27.627Z,99.90
2018-06-25T03:23:12.083Z,99.90
2018-06-25T03:27:56.556Z,99.90
2018-06-25T03:32:41.007Z,99.90
2018-06-25T03:37:25.513Z,99.90
2018-06-25T03:42:10.041Z,99.90
2018-06-25T03:46:54.437Z,99.90
2018-06-25T03:51:39.059Z,99.90
2018-06-25T03:56:23.935Z,99.90
2018-06-25T04:01:08.393Z,99.90
2018-06-25T04:05:52.926Z,99.90
2018-06-25T04:10:37.416Z,99.90
2018-06-25T04:15:21.951Z,99.90
2018-06-25T04:20:06.616Z,99.90
2018-06-25T04:24:51.166Z,99.90
2018-06-25T04:29:35.649Z,99.90
2018-06-25T04:34:20.045Z,99.90
2018-06-25T04:39:06.830Z,99.90
2018-06-25T04:43:51.313Z,99.90
2018-06-25T04:48:35.804Z,99.90
2018-06-25T04:53:20.261Z,99.90
2018-06-25T04:58:04.777Z,99.90
2018-06-25T05:02:49.495Z,99.90
2018-06-25T05:07:34.255Z,99.90
2018-06-25T05:12:19.053Z,99.90
2018-06-25T05:17:03.593Z,99.90
2018-06-25T05:21:48.066Z,99.90
2018-06-25T05:26:32.964Z,99.90
2018-06-25T05:31:17.742Z,99.90
2018-06-25T05:36:02.262Z,99.90
2018-06-25T05:40:46.842Z,99.90
2018-06-25T05:45:31.416Z,99.90
2018-06-25T05:50:15.920Z,99.90
2018-06-25T05:55:00.388Z,99.90
2018-06-25T05:59:44.916Z,99.90
2018-06-25T06:04:29.586Z,99.90
2018-06-25T06:09:13.913Z,99.90
2018-06-25T06:13:58.505Z,99.90
2018-06-25T06:18:43.082Z,99.90
2018-06-25T06:23:27.843Z,99.90
2018-06-25T06:28:12.263Z,99.90
2018-06-25T06:32:56.683Z,99.90
2018-06-25T06:37:41.172Z,99.90
2018-06-25T06:42:25.777Z,99.90
2018-06-25T06:47:10.390Z,99.90
2018-06-25T06:51:55.427Z,99.90
2018-06-25T06:56:39.808Z,99.90
2018-06-25T07:01:24.233Z,99.90
2018-06-25T07:06:08.548Z,99.90
2018-06-25T07:10:53.023Z,99.90
2018-06-25T07:15:37.589Z,99.90
2018-06-25T07:20:21.971Z,99.90
2018-06-25T07:25:06.436Z,99.90
2018-06-25T07:29:50.927Z,99.90
2018-06-25T07:34:35.285Z,99.90
2018-06-25T07:39:19.673Z,99.90
2018-06-25T07:44:04.229Z,99.90
2018-06-25T07:48:48.715Z,99.90
2018-06-25T07:53:33.157Z,99.90
2018-06-25T07:58:17.612Z,99.90
2018-06-25T08:03:02.000Z,99.90
2018-06-25T08:07:46.413Z,99.90
2018-06-25T08:12:30.873Z,99.90
2018-06-25T08:17:15.341Z,99.90
2018-06-25T08:21:59.718Z,99.90
2018-06-25T08:26:44.093Z,99.90
2018-06-25T08:31:28.383Z,99.90
2018-06-25T08:36:12.723Z,99.90
2018-06-25T08:40:57.146Z,99.90
2018-06-25T08:45:41.784Z,99.90
2018-06-25T08:50:26.209Z,99.90
2018-06-25T08:55:10.767Z,99.90
2018-06-25T08:59:55.115Z,99.90
2018-06-25T09:04:39.561Z,99.90
2018-06-25T09:09:23.957Z,99.90
2018-06-25T09:14:08.783Z,99.90
2018-06-25T09:18:53.127Z,99.90
2018-06-25T09:23:37.483Z,99.90
2018-06-25T09:28:21.855Z,99.90
2018-06-25T09:33:06.247Z,99.90
2018-06-25T09:37:50.755Z,99.90
2018-06-25T09:42:35.266Z,99.90
2018-06-25T09:47:19.659Z,99.90
2018-06-25T09:52:04.055Z,99.90
2018-06-25T09:56:48.534Z,99.90
2018-06-25T10:01:33.014Z,99.90
2018-06-25T10:06:17.510Z,99.90
2018-06-25T10:11:01.965Z,99.90
2018-06-25T10:15:46.442Z,99.90
2018-06-25T10:20:30.907Z,99.90
2018-06-25T10:25:15.390Z,99.90
2018-06-25T10:29:59.878Z,99.90
2018-06-25T10:34:44.340Z,99.90
2018-06-25T10:39:28.851Z,99.90
2018-06-25T10:44:13.317Z,99.90
2018-06-25T10:48:57.751Z,99.90
2018-06-25T10:53:42.146Z,99.90
2018-06-25T10:58:26.663Z,99.90
2018-06-25T11:03:11.051Z,99.90
2018-06-25T11:07:55.453Z,99.90
2018-06-25T11:12:40.070Z,99.90
2018-06-25T11:17:24.652Z,99.90
2018-06-25T11:22:09.637Z,99.90
2018-06-25T11:26:54.161Z,99.90
2018-06-25T11:31:39.749Z,99.30
2018-06-25T11:41:08.306Z,98.30
2018-06-25T11:45:54.963Z,97.00
2018-06-25T11:50:39.617Z,95.60
2018-06-25T11:55:23.995Z,95.40
2018-06-25T12:00:08.852Z,96.00
2018-06-25T12:04:53.387Z,97.10
2018-06-25T12:09:37.795Z,96.80
2018-06-25T12:14:22.295Z,95.00
2018-06-25T12:19:06.872Z,92.90
2018-06-25T12:23:51.320Z,91.40
2018-06-25T12:28:35.715Z,91.10
2018-06-25T12:33:20.042Z,88.10
2018-06-25T12:38:05.092Z,88.70
2018-06-25T12:42:49.512Z,86.70
2018-06-25T12:47:34.181Z,86.70
2018-06-25T12:52:18.686Z,84.90
2018-06-25T12:57:03.219Z,88.70
2018-06-25T13:01:48.348Z,91.60
2018-06-25T13:06:32.859Z,85.60
2018-06-25T13:11:17.409Z,90.30
2018-06-25T13:16:01.961Z,89.70
2018-06-25T13:20:46.722Z,84.10
2018-06-25T13:25:31.120Z,82.70
2018-06-25T13:30:16.259Z,81.50
2018-06-25T13:35:00.974Z,83.70
2018-06-25T13:39:45.456Z,84.50
2018-06-25T13:44:29.994Z,80.50
2018-06-25T13:49:14.323Z,79.90
2018-06-25T13:53:58.867Z,78.30
2018-06-25T13:58:43.343Z,78.40
2018-06-25T14:03:27.753Z,78.00
2018-06-25T14:08:13.371Z,80.00
2018-06-25T14:12:57.771Z,81.10
2018-06-25T14:17:42.375Z,81.70
2018-06-25T14:22:26.938Z,78.70
2018-06-25T14:27:12.848Z,76.20
2018-06-25T14:32:02.561Z,72.90
2018-06-25T14:36:46.958Z,74.60
2018-06-25T14:41:31.853Z,75.10
2018-06-25T14:46:16.275Z,79.00
2018-06-25T14:51:00.768Z,79.10
2018-06-25T14:55:45.270Z,80.00
2018-06-25T15:00:29.859Z,82.70
2018-06-25T15:05:14.252Z,78.70
2018-06-25T15:09:58.632Z,77.10
2018-06-25T15:14:43.004Z,76.10
2018-06-25T15:19:27.543Z,73.20
2018-06-25T15:24:11.936Z,74.90
2018-06-25T15:28:56.479Z,74.70
2018-06-25T15:33:41.031Z,77.80
2018-06-25T15:38:26.225Z,77.00
2018-06-25T15:43:10.630Z,74.70
2018-06-25T15:47:55.062Z,76.70
2018-06-25T15:52:39.456Z,76.30
2018-06-25T15:57:23.992Z,73.30
2018-06-25T16:02:08.397Z,71.00
2018-06-25T16:06:52.932Z,73.10
2018-06-25T16:11:37.639Z,75.50
2018-06-25T16:16:22.103Z,72.20
2018-06-25T16:21:06.667Z,70.70
2018-06-25T16:25:51.099Z,72.50
2018-06-25T16:30:35.512Z,74.30
2018-06-25T16:35:20.112Z,77.50
2018-06-25T16:40:04.550Z,76.70
2018-06-25T16:44:48.995Z,77.70
2018-06-25T16:49:33.454Z,76.60
2018-06-25T16:54:17.880Z,80.00
2018-06-25T16:59:02.559Z,78.20
2018-06-25T17:03:46.941Z,79.00
2018-06-25T17:08:31.547Z,80.10
2018-06-25T17:13:17.054Z,81.50
2018-06-25T17:18:16.637Z,81.60
2018-06-25T17:23:01.432Z,83.10
2018-06-25T17:27:45.917Z,84.80
2018-06-25T17:32:30.297Z,85.60
2018-06-25T17:37:14.758Z,84.60
2018-06-25T17:41:59.358Z,87.30
2018-06-25T17:46:48.250Z,84.80
2018-06-25T17:51:33.012Z,83.20
2018-06-25T17:56:17.537Z,84.60
2018-06-25T18:01:02.272Z,85.00
2018-06-25T18:05:47.024Z,83.90
2018-06-25T18:10:31.548Z,85.20
2018-06-25T18:15:21.562Z,86.60
2018-06-25T18:20:07.042Z,88.80
2018-06-25T18:24:51.413Z,90.40
2018-06-25T18:29:35.815Z,92.20
2018-06-25T18:34:20.201Z,93.30
2018-06-25T18:39:06.787Z,94.20
2018-06-25T18:43:51.276Z,95.30
2018-06-25T18:48:36.194Z,97.00
2018-06-25T18:53:20.847Z,98.60
2018-06-25T18:58:05.576Z,99.90
2018-06-25T19:02:50.043Z,99.90
2018-06-25T19:07:34.715Z,99.90
2018-06-25T19:12:19.165Z,99.90
2018-06-25T19:17:03.756Z,99.90
2018-06-25T19:21:48.488Z,99.90
2018-06-25T19:26:33.130Z,99.90
2018-06-25T19:31:17.698Z,99.90
2018-06-25T19:36:02.368Z,99.90
2018-06-25T19:40:47.808Z,99.90
2018-06-25T19:45:40.208Z,99.90
2018-06-25T19:50:26.739Z,99.90
2018-06-25T19:55:12.483Z,99.90
2018-06-25T20:00:01.274Z,99.90
2018-06-25T20:04:47.154Z,99.90
2018-06-25T20:09:32.264Z,99.90
2018-06-25T20:14:16.973Z,99.90
2018-06-25T20:19:03.004Z,99.90
2018-06-25T20:23:48.027Z,99.90
2018-06-25T20:28:32.993Z,99.90
2018-06-25T20:33:24.724Z,99.90
2018-06-25T20:38:11.229Z,99.90
2018-06-25T20:42:56.020Z,99.90
2018-06-25T20:47:41.403Z,99.90
2018-06-25T20:52:26.116Z,99.90
2018-06-25T20:57:11.401Z,99.90
2018-06-25T21:01:56.241Z,99.90
2018-06-25T21:06:42.213Z,99.90
2018-06-25T21:11:27.191Z,99.90
2018-06-25T21:16:12.795Z,99.90
2018-06-25T21:20:58.303Z,99.90
2018-06-25T21:25:43.037Z,99.90
2018-06-25T21:30:27.956Z,99.90
2018-06-25T21:35:13.119Z,99.90
2018-06-25T21:39:58.344Z,99.90
2018-06-25T21:44:44.154Z,99.90
2018-06-25T21:49:28.689Z,99.90
2018-06-25T21:54:13.385Z,99.90
2018-06-25T21:58:58.172Z,99.90
2018-06-25T22:03:43.120Z,99.90
2018-06-25T22:08:28.901Z,99.90
2018-06-25T22:13:13.525Z,99.90
2018-06-25T22:17:58.199Z,99.90
2018-06-25T22:22:43.032Z,99.90
2018-06-25T22:27:27.477Z,99.90
2018-06-25T22:32:12.074Z,99.90
2018-06-25T22:36:56.604Z,99.90
2018-06-25T22:41:41.788Z,99.90
2018-06-25T22:46:26.416Z,99.90
2018-06-25T22:51:11.046Z,99.90
2018-06-25T22:55:55.536Z,99.90
2018-06-25T23:00:40.231Z,99.90
2018-06-25T23:05:24.686Z,99.90
2018-06-25T23:10:09.079Z,99.90
2018-06-25T23:14:53.427Z,99.90
2018-06-25T23:19:37.820Z,99.90
2018-06-25T23:24:22.180Z,99.90
2018-06-25T23:29:06.762Z,99.90
2018-06-25T23:33:51.155Z,99.90
2018-06-25T23:38:36.528Z,99.90
2018-06-25T23:43:21.124Z,99.90
2018-06-25T23:48:05.619Z,99.90
2018-06-25T23:52:52.160Z,99.90
2018-06-25T23:57:36.512Z,99.90
